Crossville, Tennessee
Current Conditions -  °F | °C
As of 7:53 AM on Monday 20 Oct 2014 (Local Time) from KCSV Reporting Station
Clear Clear  
Wind Chill:   Ceiling: Unl
Heat Index:   Visibility: 10mi
Dew Point:   Wind: 3mph
Humidity: 80%   Direction: NA
Pressure: 30.11"   Gusts: NA
Location:  35.95°N, 85.03°W
Report Text: KCSV 201253Z AUTO VRB03KT 10SM CLR 09/06 A3011 RMK AO2 SLP193 T00940061
Loading
Personal Weather Stations






























Interactive Weather Map New forecast layout! Learn more

10-Day Weather Forecast

Advertisements
Track Severe Weather on mobile